Time;durP1;ratioP1;P1;durP2;ratioP2;P2;SDS_P1;SDS_P2;PMS_P1;PMS_P2;Temp;Humidity;BMP_temperature;BMP_pressure;BME280_temperature;BME280_humidity;BME280_pressure;Samples;Min_cycle;Max_cycle;Signal;HPM_P1;HPM_P2
2021/10/20 02:45:59;;;;;;;27.75;20.15;;;13.90;97.80;;;;;;5426684;24;20250;-82
2021/10/20 02:48:25;;;;;;;32.05;20.63;;;13.90;97.90;;;;;;4814162;29;20038;-81
2021/10/20 02:50:50;;;;;;;28.70;19.27;;;13.90;97.90;;;;;;4796492;29;20031;-83
2021/10/20 02:53:16;;;;;;;29.73;23.42;;;13.90;98.00;;;;;;4799547;29;20027;-81
2021/10/20 02:55:42;;;;;;;28.33;18.83;;;13.90;98.10;;;;;;4808879;29;20042;-84
2021/10/20 02:58:07;;;;;;;29.35;18.42;;;13.90;98.10;;;;;;4814046;29;20031;-83
2021/10/20 03:00:33;;;;;;;27.13;18.98;;;13.90;98.00;;;;;;4808274;29;20045;-84
2021/10/20 03:02:59;;;;;;;33.05;18.75;;;14.00;98.00;;;;;;4803729;29;20035;-82
2021/10/20 03:05:25;;;;;;;28.45;20.45;;;13.90;97.90;;;;;;4806691;29;20095;-84
2021/10/20 03:07:52;;;;;;;26.30;19.42;;;14.00;97.90;;;;;;4802343;29;20039;-84
2021/10/20 03:10:18;;;;;;;35.20;20.60;;;14.00;97.90;;;;;;4804681;29;20102;-83
2021/10/20 03:12:44;;;;;;;31.38;20.52;;;14.00;97.90;;;;;;4784781;29;20042;-84
2021/10/20 03:15:11;;;;;;;30.90;21.02;;;14.00;97.80;;;;;;4814409;29;20122;-84
2021/10/20 03:17:37;;;;;;;;;;;14.00;97.90;;;;;;4811703;29;20230;-84
2021/10/20 03:20:09;;;;;;;29.30;20.13;;;13.90;98.00;;;;;;4811494;29;19910;-84
2021/10/20 03:22:43;;;;;;;26.45;19.92;;;13.90;97.90;;;;;;4790967;29;20418;-83
2021/10/20 03:25:10;;;;;;;31.15;20.08;;;13.90;98.00;;;;;;4814228;29;20035;-81
2021/10/20 03:27:46;;;;;;;;;;;13.90;98.00;;;;;;4814670;29;20075;-83
2021/10/20 03:30:14;;;;;;;30.00;20.27;;;13.90;98.20;;;;;;4802021;29;19924;-81
2021/10/20 03:32:40;;;;;;;32.00;22.02;;;13.90;98.10;;;;;;4810333;29;20046;-83
2021/10/20 03:35:07;;;;;;;29.80;20.42;;;13.90;97.90;;;;;;4813016;29;20080;-83
2021/10/20 03:37:33;;;;;;;;;;;13.80;97.60;;;;;;4814677;29;20027;-84
2021/10/20 03:39:59;;;;;;;28.40;20.90;;;13.70;97.40;;;;;;4803715;29;19906;-81
2021/10/20 03:42:25;;;;;;;31.98;21.27;;;13.60;97.40;;;;;;4796186;29;20027;-84
2021/10/20 03:44:51;;;;;;;32.53;21.65;;;13.60;97.50;;;;;;4781265;29;20042;-84
2021/10/20 03:47:19;;;;;;;32.58;21.02;;;13.50;97.60;;;;;;4802366;29;20087;-82
2021/10/20 03:49:46;;;;;;;32.58;19.88;;;13.50;97.60;;;;;;4806092;29;20148;-83
2021/10/20 03:52:12;;;;;;;31.85;21.27;;;13.40;97.60;;;;;;4808018;29;20092;-84
2021/10/20 03:54:37;;;;;;;37.15;21.02;;;13.30;97.60;;;;;;4802250;29;20330;-84
2021/10/20 03:57:03;;;;;;;30.45;21.40;;;13.20;97.90;;;;;;4811084;29;20038;-83
2021/10/20 03:59:29;;;;;;;30.60;20.38;;;13.10;97.70;;;;;;4817327;29;20222;-84
2021/10/20 04:01:55;;;;;;;32.45;22.13;;;13.10;97.70;;;;;;4817461;29;20223;-84
2021/10/20 04:04:21;;;;;;;30.25;20.15;;;13.00;97.70;;;;;;4802073;29;20118;-84
2021/10/20 04:06:47;;;;;;;32.30;21.48;;;13.00;97.80;;;;;;4803641;29;20070;-84
2021/10/20 04:09:12;;;;;;;33.00;20.42;;;12.90;97.80;;;;;;4799173;29;20031;-84
2021/10/20 04:11:38;;;;;;;29.73;20.67;;;12.90;97.90;;;;;;4811231;29;20038;-84
2021/10/20 04:14:04;;;;;;;28.85;20.98;;;12.80;97.90;;;;;;4799579;29;20035;-84
2021/10/20 04:16:30;;;;;;;34.47;22.20;;;12.70;98.00;;;;;;4813083;29;20031;-81
2021/10/20 04:18:55;;;;;;;31.92;20.92;;;12.70;98.10;;;;;;4811035;29;20026;-84
2021/10/20 04:21:21;;;;;;;36.50;22.73;;;12.60;98.20;;;;;;4816884;29;20054;-84
2021/10/20 04:23:47;;;;;;;33.45;21.38;;;12.60;98.20;;;;;;4816691;29;20031;-84
2021/10/20 04:26:13;;;;;;;33.50;22.33;;;12.50;98.40;;;;;;4816876;29;20060;-84
2021/10/20 04:28:38;;;;;;;34.55;23.80;;;12.40;98.50;;;;;;4801943;29;20045;-84
2021/10/20 04:31:04;;;;;;;32.15;22.55;;;12.40;98.80;;;;;;4817177;29;20054;-82
2021/10/20 04:33:30;;;;;;;35.65;22.17;;;12.40;98.60;;;;;;4800676;29;20315;-84
2021/10/20 04:35:56;;;;;;;36.00;22.02;;;12.30;98.60;;;;;;4799056;29;20035;-84
2021/10/20 04:38:21;;;;;;;34.05;24.08;;;12.20;98.60;;;;;;4798924;29;20041;-84
2021/10/20 04:40:47;;;;;;;34.97;23.52;;;12.20;98.70;;;;;;4804785;29;20023;-84
2021/10/20 04:43:13;;;;;;;39.17;23.85;;;12.20;98.90;;;;;;4813880;29;20027;-84
2021/10/20 04:45:39;;;;;;;37.50;22.73;;;12.10;98.90;;;;;;4798575;29;20055;-84
2021/10/20 04:48:05;;;;;;;37.45;23.02;;;12.10;99.10;;;;;;4804323;29;20096;-84
2021/10/20 04:50:31;;;;;;;42.58;23.85;;;12.00;99.30;;;;;;4810760;29;20039;-84
2021/10/20 04:52:56;;;;;;;40.92;25.48;;;12.00;99.40;;;;;;4816994;29;20251;-84
2021/10/20 04:55:22;;;;;;;39.83;23.58;;;12.00;99.40;;;;;;4809017;29;20062;-82
2021/10/20 04:57:53;;;;;;;37.20;23.15;;;11.90;99.50;;;;;;4798680;29;20080;-84
2021/10/20 05:00:21;;;;;;;33.22;22.23;;;11.90;99.50;;;;;;4798549;29;20047;-84
2021/10/20 05:02:47;;;;;;;37.10;24.48;;;11.80;99.40;;;;;;4797504;29;20424;-84
2021/10/20 05:05:13;;;;;;;37.00;24.27;;;11.80;99.50;;;;;;4797225;29;20115;-84
2021/10/20 05:07:54;;;;;;;36.22;23.75;;;11.80;99.70;;;;;;4815466;29;20043;-84
2021/10/20 05:10:21;;;;;;;40.20;25.10;;;11.70;99.80;;;;;;4808309;29;20052;-84
2021/10/20 05:12:48;;;;;;;33.72;24.40;;;11.70;99.90;;;;;;4798435;29;20358;-84
2021/10/20 05:15:15;;;;;;;40.63;27.70;;;11.70;99.80;;;;;;4789286;29;20039;-84
2021/10/20 05:17:42;;;;;;;43.30;26.02;;;11.60;99.90;;;;;;4807885;29;20039;-83
2021/10/20 05:20:11;;;;;;;38.08;25.63;;;11.60;99.90;;;;;;4814347;29;20027;-84
2021/10/20 05:22:38;;;;;;;40.63;24.80;;;11.60;99.90;;;;;;4797395;29;20031;-84
2021/10/20 05:25:06;;;;;;;43.40;27.02;;;11.60;99.90;;;;;;4814645;29;20330;-84
2021/10/20 05:27:32;;;;;;;38.63;26.35;;;11.60;99.90;;;;;;4798444;29;20040;-83
2021/10/20 05:29:58;;;;;;;39.78;24.65;;;11.60;99.90;;;;;;4795933;29;20038;-84
2021/10/20 05:32:25;;;;;;;39.17;26.48;;;11.60;99.90;;;;;;4804365;29;20110;-84
2021/10/20 05:34:51;;;;;;;38.55;26.70;;;11.60;99.90;;;;;;4798385;29;20034;-84
2021/10/20 05:37:17;;;;;;;37.05;24.73;;;11.60;99.90;;;;;;4798327;29;20039;-84
2021/10/20 05:39:43;;;;;;;44.78;27.65;;;11.60;99.90;;;;;;4798045;29;20289;-84
2021/10/20 05:42:08;;;;;;;41.15;26.63;;;11.60;99.90;;;;;;4798361;29;20035;-84
2021/10/20 05:44:34;;;;;;;36.75;26.90;;;11.60;99.90;;;;;;4816023;29;20034;-84
2021/10/20 05:47:00;;;;;;;38.70;26.98;;;11.60;99.90;;;;;;4807664;29;20118;-84
2021/10/20 05:49:26;;;;;;;43.75;27.38;;;11.50;99.90;;;;;;4803507;29;20076;-84
2021/10/20 05:51:52;;;;;;;36.10;26.10;;;11.50;99.90;;;;;;4804219;29;20319;-84
2021/10/20 05:54:17;;;;;;;41.13;25.52;;;11.60;99.90;;;;;;4803428;29;20088;-84
2021/10/20 05:56:43;;;;;;;42.33;28.35;;;11.60;99.90;;;;;;4805413;29;20034;-84
2021/10/20 05:59:09;;;;;;;43.20;28.05;;;11.50;99.70;;;;;;4804930;29;20035;-84
2021/10/20 06:01:35;;;;;;;44.92;30.33;;;11.50;99.90;;;;;;4809137;29;20083;-83
2021/10/20 06:04:01;;;;;;;44.60;28.50;;;11.50;99.90;;;;;;4803565;29;20118;-84
2021/10/20 06:06:26;;;;;;;38.05;26.85;;;11.60;99.90;;;;;;4800539;29;20314;-83
2021/10/20 06:08:53;;;;;;;46.95;29.13;;;11.60;99.90;;;;;;4805929;29;20054;-84
2021/10/20 06:11:20;;;;;;;42.22;28.45;;;11.60;99.90;;;;;;4797523;29;20031;-84
2021/10/20 06:13:46;;;;;;;42.63;28.33;;;11.60;99.90;;;;;;4801837;29;20226;-84
2021/10/20 06:16:12;;;;;;;41.35;27.70;;;11.70;99.90;;;;;;4808327;29;20023;-84
2021/10/20 06:18:38;;;;;;;43.80;28.05;;;11.70;99.90;;;;;;4795118;29;20023;-84
2021/10/20 06:21:05;;;;;;;41.47;27.27;;;11.80;99.90;;;;;;4802819;29;20085;-84
2021/10/20 06:23:31;;;;;;;40.30;26.08;;;11.80;99.90;;;;;;4804270;29;20380;-84
2021/10/20 06:25:57;;;;;;;41.63;26.30;;;11.90;99.90;;;;;;4803590;29;20242;-84
2021/10/20 06:28:24;;;;;;;41.72;27.00;;;11.90;99.90;;;;;;4803460;29;20099;-84
2021/10/20 06:30:49;;;;;;;49.30;27.10;;;11.90;99.90;;;;;;4806494;29;20056;-84
2021/10/20 06:33:15;;;;;;;46.33;28.52;;;12.00;99.90;;;;;;4804478;29;20054;-84
2021/10/20 06:35:41;;;;;;;40.95;27.27;;;12.00;99.90;;;;;;4806524;29;20031;-84
2021/10/20 06:38:07;;;;;;;42.67;26.77;;;12.10;99.90;;;;;;4796416;29;20026;-84
2021/10/20 06:40:33;;;;;;;36.83;25.45;;;12.20;99.90;;;;;;4803729;29;20023;-84
2021/10/20 06:42:59;;;;;;;41.78;27.63;;;12.20;99.90;;;;;;4802988;29;20068;-84
2021/10/20 06:45:25;;;;;;;40.67;26.70;;;12.30;99.90;;;;;;4807031;29;20022;-84
2021/10/20 06:47:51;;;;;;;38.92;25.08;;;12.30;99.90;;;;;;4802856;29;20237;-84
2021/10/20 06:50:18;;;;;;;38.38;25.02;;;12.30;99.90;;;;;;4807682;29;20039;-84
2021/10/20 06:52:44;;;;;;;;;;;12.40;99.90;;;;;;4805353;29;20035;-84
2021/10/20 06:55:11;;;;;;;35.37;25.00;;;12.40;99.70;;;;;;4802565;29;19924;-84
2021/10/20 06:57:39;;;;;;;41.78;24.27;;;12.50;99.60;;;;;;4798984;29;20022;-84
2021/10/20 07:00:05;;;;;;;36.97;24.55;;;12.60;99.50;;;;;;4806428;29;20031;-84
2021/10/20 07:02:31;;;;;;;43.75;25.15;;;12.70;99.30;;;;;;4805717;29;20023;-84
2021/10/20 07:04:57;;;;;;;36.53;23.92;;;12.80;99.10;;;;;;4797551;29;20094;-84
2021/10/20 07:07:23;;;;;;;38.03;24.50;;;12.80;99.00;;;;;;4805162;29;20214;-84
2021/10/20 07:09:48;;;;;;;36.33;24.30;;;12.90;98.80;;;;;;4804277;29;20034;-84
2021/10/20 07:12:14;;;;;;;39.30;24.67;;;12.90;98.60;;;;;;4801972;29;20077;-83
2021/10/20 07:14:40;;;;;;;30.95;24.27;;;13.00;98.50;;;;;;4797649;29;20047;-82
2021/10/20 07:17:09;;;;;;;38.65;25.10;;;13.00;98.20;;;;;;4805406;29;20075;-84
2021/10/20 07:19:38;;;;;;;39.00;22.83;;;13.00;98.40;;;;;;4799336;29;20334;-84
2021/10/20 07:22:05;;;;;;;32.13;23.05;;;13.20;98.20;;;;;;4803765;29;20279;-84
2021/10/20 07:24:31;;;;;;;;;;;13.20;98.10;;;;;;4805759;29;20077;-84
2021/10/20 07:26:56;;;;;;;30.77;21.77;;;13.30;98.00;;;;;;4810772;29;20202;-84
2021/10/20 07:29:22;;;;;;;36.15;23.48;;;13.30;97.80;;;;;;4810031;29;20027;-84
2021/10/20 07:31:48;;;;;;;41.17;23.38;;;13.40;97.50;;;;;;4810805;29;20031;-84
2021/10/20 07:34:14;;;;;;;39.25;24.85;;;13.40;97.40;;;;;;4806820;29;20080;-82
2021/10/20 07:36:41;;;;;;;34.60;23.95;;;13.50;97.40;;;;;;4806086;29;20031;-80
2021/10/20 07:39:08;;;;;;;34.80;23.10;;;13.70;97.10;;;;;;4803603;29;20027;-82
2021/10/20 07:41:34;;;;;;;35.87;23.60;;;13.60;96.60;;;;;;4806521;29;20022;-84
2021/10/20 07:44:00;;;;;;;33.35;22.70;;;13.60;96.80;;;;;;4806803;29;20031;-83
2021/10/20 07:46:26;;;;;;;34.00;23.30;;;13.70;96.80;;;;;;4804733;29;20118;-82
2021/10/20 07:48:52;;;;;;;31.77;21.90;;;13.70;96.60;;;;;;4805729;29;20031;-83
2021/10/20 07:51:18;;;;;;;35.42;22.48;;;13.80;96.40;;;;;;4805041;29;20098;-82
2021/10/20 07:53:43;;;;;;;40.03;22.50;;;14.00;96.10;;;;;;4808184;29;20057;-83
2021/10/20 07:56:09;;;;;;;34.85;23.10;;;14.00;96.00;;;;;;4812208;29;20390;-83
2021/10/20 07:58:35;;;;;;;33.45;22.25;;;14.00;95.70;;;;;;4811971;29;20034;-83
2021/10/20 08:01:01;;;;;;;35.40;22.02;;;14.10;95.80;;;;;;4813484;29;20160;-83
2021/10/20 08:03:28;;;;;;;37.73;23.17;;;14.20;95.50;;;;;;4810695;29;20059;-83
2021/10/20 08:05:54;;;;;;;37.77;22.63;;;14.20;95.40;;;;;;4814803;29;20352;-83
2021/10/20 08:08:20;;;;;;;32.90;22.90;;;14.30;95.10;;;;;;4806338;29;20031;-83
2021/10/20 08:10:46;;;;;;;43.15;21.42;;;14.40;95.10;;;;;;4799645;29;20224;-83
2021/10/20 08:13:12;;;;;;;29.10;20.67;;;14.40;94.80;;;;;;4799602;29;20035;-83
2021/10/20 08:15:39;;;;;;;32.70;20.65;;;14.50;95.00;;;;;;4796155;29;20031;-83
2021/10/20 08:18:08;;;;;;;;;;;14.60;94.60;;;;;;4803520;29;20038;-83
2021/10/20 08:20:35;;;;;;;34.55;22.25;;;14.80;93.80;;;;;;4804251;29;19909;-83
2021/10/20 08:23:02;;;;;;;28.27;20.90;;;14.80;94.00;;;;;;4816701;29;20099;-82
2021/10/20 08:25:28;;;;;;;30.98;21.38;;;14.90;93.80;;;;;;4808205;29;20357;-83
2021/10/20 08:27:54;;;;;;;29.50;21.83;;;14.90;93.80;;;;;;4798794;29;20039;-83
2021/10/20 08:30:20;;;;;;;29.25;20.92;;;15.00;93.80;;;;;;4800813;29;20037;-83
2021/10/20 08:32:51;;;;;;;31.73;21.30;;;15.20;93.70;;;;;;4802672;29;20318;-83
2021/10/20 08:35:18;;;;;;;37.10;22.15;;;15.30;92.90;;;;;;4785777;29;20265;-83
2021/10/20 08:37:45;;;;;;;35.72;21.85;;;15.30;93.20;;;;;;4808507;29;20110;-82
2021/10/20 08:40:12;;;;;;;28.85;20.25;;;15.50;92.60;;;;;;4800422;29;20318;-83
2021/10/20 08:42:40;;;;;;;31.35;21.17;;;15.60;92.60;;;;;;4804262;29;20106;-83
2021/10/20 08:45:07;;;;;;;30.65;20.33;;;15.80;92.60;;;;;;4814148;29;20039;-83
2021/10/20 08:47:34;;;;;;;24.50;18.63;;;16.00;92.30;;;;;;4820136;29;20069;-83
2021/10/20 08:50:05;;;;;;;31.55;20.65;;;16.10;91.70;;;;;;4804042;29;20043;-83
2021/10/20 08:52:32;;;;;;;26.73;19.90;;;16.30;91.40;;;;;;4810139;29;20331;-83
2021/10/20 08:54:59;;;;;;;33.45;20.98;;;16.40;90.70;;;;;;4805410;29;20037;-83
2021/10/20 08:57:25;;;;;;;30.15;21.40;;;16.50;90.60;;;;;;4805902;29;20055;-83
2021/10/20 08:59:51;;;;;;;37.65;20.73;;;16.40;90.50;;;;;;4801736;29;20039;-83
2021/10/20 09:02:20;;;;;;;27.70;20.30;;;16.50;90.10;;;;;;4798421;29;20331;-83
2021/10/20 09:04:45;;;;;;;30.13;19.75;;;16.40;90.10;;;;;;4798147;29;20031;-83
2021/10/20 09:07:15;;;;;;;31.60;19.50;;;16.50;90.10;;;;;;4798704;29;20050;-83
2021/10/20 09:09:41;;;;;;;32.03;19.52;;;16.60;90.00;;;;;;4798657;29;20038;-83
2021/10/20 09:12:08;;;;;;;29.77;20.15;;;16.60;89.50;;;;;;4809006;29;20239;-83
2021/10/20 09:14:34;;;;;;;27.60;19.67;;;16.50;90.00;;;;;;4803120;29;20027;-83
2021/10/20 09:17:04;;;;;;;28.57;19.53;;;16.20;90.00;;;;;;4803343;29;20147;-83
2021/10/20 09:19:35;;;;;;;29.10;20.92;;;16.20;90.30;;;;;;4803373;29;20281;-83
2021/10/20 09:22:09;;;;;;;26.65;19.35;;;16.20;90.60;;;;;;4801598;29;20057;-83
2021/10/20 09:24:41;;;;;;;30.50;19.23;;;16.40;90.70;;;;;;4802713;29;20068;-83
2021/10/20 09:27:22;;;;;;;30.02;19.65;;;16.70;90.30;;;;;;4804805;29;20265;-83
2021/10/20 09:29:48;;;;;;;30.08;18.00;;;17.00;89.30;;;;;;4807731;29;20050;-83
2021/10/20 09:32:16;;;;;;;28.45;17.95;;;17.20;88.40;;;;;;4803496;29;20346;-83
2021/10/20 09:34:42;;;;;;;25.60;18.00;;;17.30;87.70;;;;;;4804522;29;20046;-83
2021/10/20 09:37:08;;;;;;;31.60;18.27;;;17.50;86.50;;;;;;4804138;29;20273;-83
2021/10/20 09:39:36;;;;;;;28.75;18.65;;;17.60;86.10;;;;;;4803492;29;20235;-83
2021/10/20 09:42:10;;;;;;;27.73;19.08;;;17.60;84.80;;;;;;4812189;29;20125;-83
2021/10/20 09:44:46;;;;;;;28.23;19.23;;;17.60;84.70;;;;;;4823425;29;20057;-84
2021/10/20 09:47:12;;;;;;;32.05;19.30;;;17.60;83.90;;;;;;4808392;29;20290;-83
2021/10/20 09:49:49;;;;;;;28.08;19.40;;;17.60;84.40;;;;;;4804256;29;20031;-83
2021/10/20 09:52:16;;;;;;;29.95;19.20;;;17.60;84.40;;;;;;4802961;29;20027;-83
2021/10/20 09:54:44;;;;;;;28.67;18.27;;;17.60;84.60;;;;;;4806441;29;20034;-83
2021/10/20 09:57:13;;;;;;;29.95;18.20;;;17.80;85.00;;;;;;4804579;29;20083;-83
2021/10/20 09:59:40;;;;;;;25.95;17.15;;;18.10;83.30;;;;;;4805471;29;20039;-80
2021/10/20 10:02:07;;;;;;;;;;;18.20;82.30;;;;;;4791781;29;20388;-81
2021/10/20 10:04:35;;;;;;;30.33;17.70;;;18.30;80.80;;;;;;4807551;29;19910;-84
2021/10/20 10:07:02;;;;;;;27.27;16.60;;;18.20;80.60;;;;;;4805154;29;20223;-83
2021/10/20 10:09:29;;;;;;;25.95;18.52;;;18.10;81.30;;;;;;4819648;29;20365;-83
2021/10/20 10:11:58;;;;;;;27.17;17.20;;;18.10;81.20;;;;;;4805045;29;20378;-83
2021/10/20 10:14:38;;;;;;;37.10;17.83;;;18.10;81.00;;;;;;4795754;29;20035;-83
2021/10/20 10:17:04;;;;;;;25.38;17.80;;;18.20;80.40;;;;;;4803550;29;20034;-83
2021/10/20 10:19:34;;;;;;;27.02;17.85;;;18.20;80.60;;;;;;4797611;29;20027;-83
2021/10/20 10:22:17;;;;;;;29.67;17.92;;;18.20;80.40;;;;;;4798555;29;20323;-83
2021/10/20 10:24:44;;;;;;;31.63;18.63;;;18.20;82.00;;;;;;4805092;29;20203;-82
2021/10/20 10:27:11;;;;;;;24.80;16.80;;;18.30;80.90;;;;;;4807923;29;20031;-83
2021/10/20 10:29:57;;;;;;;;;;;18.40;80.90;;;;;;4810115;29;20026;-83
2021/10/20 10:32:26;;;;;;;29.70;17.33;;;18.70;79.80;;;;;;4811016;29;20200;-82
2021/10/20 10:34:53;;;;;;;29.13;16.90;;;18.80;78.90;;;;;;4792447;29;20039;-83
2021/10/20 10:37:27;;;;;;;;;;;18.70;79.60;;;;;;4776485;29;20421;-82
2021/10/20 10:39:53;;;;;;;28.35;18.58;;;18.70;78.40;;;;;;4781164;30;20193;-83
2021/10/20 10:42:33;;;;;;;28.45;17.50;;;18.70;78.90;;;;;;4765823;30;20086;-82
2021/10/20 10:45:13;;;;;;;27.55;17.50;;;18.80;78.60;;;;;;4798052;29;20401;-83
2021/10/20 10:47:57;;;;;;;23.52;16.95;;;18.80;78.10;;;;;;4806062;29;20389;-83
2021/10/20 10:50:39;;;;;;;24.80;17.70;;;18.90;78.90;;;;;;4797509;29;20072;-82
2021/10/20 10:53:05;;;;;;;25.90;18.40;;;19.10;77.50;;;;;;4797885;29;20301;-83
2021/10/20 10:55:32;;;;;;;25.60;16.02;;;19.30;77.00;;;;;;4772838;30;20051;-83
2021/10/20 10:57:59;;;;;;;25.27;17.93;;;19.40;76.70;;;;;;4790581;29;20035;-83
2021/10/20 11:00:26;;;;;;;22.35;16.77;;;19.50;76.80;;;;;;4801114;29;20284;-83
2021/10/20 11:02:55;;;;;;;23.23;15.52;;;19.50;75.50;;;;;;4789735;29;20139;-84
2021/10/20 11:05:30;;;;;;;22.20;14.93;;;19.40;75.70;;;;;;4777063;30;20043;-82
2021/10/20 11:08:04;;;;;;;26.52;15.48;;;19.30;76.10;;;;;;4790506;30;20062;-83
2021/10/20 11:10:31;;;;;;;32.22;15.52;;;19.40;76.10;;;;;;4810490;29;20066;-81
2021/10/20 11:12:57;;;;;;;;;;;19.20;76.10;;;;;;4806564;29;20042;-81
2021/10/20 11:15:25;;;;;;;22.00;14.85;;;19.30;75.80;;;;;;4800191;29;20225;-81
2021/10/20 11:17:51;;;;;;;25.77;14.70;;;19.40;75.50;;;;;;4805096;29;20058;-81
2021/10/20 11:20:19;;;;;;;23.30;13.45;;;19.50;75.90;;;;;;4799728;29;20366;-81
2021/10/20 11:22:54;;;;;;;18.20;12.98;;;19.70;75.40;;;;;;4799726;29;20035;-82
2021/10/20 11:25:21;;;;;;;20.13;13.75;;;19.80;73.60;;;;;;4796558;29;20039;-82
2021/10/20 11:27:49;;;;;;;23.33;12.63;;;19.80;74.20;;;;;;4808510;29;20362;-82
2021/10/20 11:30:17;;;;;;;24.55;13.68;;;19.80;73.50;;;;;;4805977;29;20038;-82
2021/10/20 11:32:45;;;;;;;16.80;12.43;;;19.80;73.00;;;;;;4799581;29;20338;-82
2021/10/20 11:35:39;;;;;;;20.23;12.32;;;20.00;72.70;;;;;;4804891;29;20039;-82
2021/10/20 11:38:16;;;;;;;18.50;11.80;;;20.00;72.50;;;;;;4777324;30;20110;-82
2021/10/20 11:40:43;;;;;;;;;;;20.10;73.20;;;;;;4750970;30;20125;-82
2021/10/20 11:43:37;;;;;;;24.50;12.15;;;20.10;72.00;;;;;;4735441;30;19961;-82
2021/10/20 11:46:03;;;;;;;18.33;12.70;;;20.10;71.50;;;;;;4768499;30;20060;-82
2021/10/20 11:48:28;;;;;;;26.70;13.05;;;20.20;71.50;;;;;;4733691;30;20051;-82
2021/10/20 11:50:57;;;;;;;22.00;11.73;;;20.20;71.60;;;;;;4775151;30;20036;-83
2021/10/20 11:53:26;;;;;;;22.90;13.07;;;20.30;71.10;;;;;;4747978;30;20083;-82
2021/10/20 11:55:53;;;;;;;16.77;12.45;;;20.30;71.40;;;;;;4762910;30;20059;-82
2021/10/20 11:58:28;;;;;;;25.67;12.88;;;20.50;70.80;;;;;;4750945;30;20129;-82
2021/10/20 12:01:00;;;;;;;18.42;12.13;;;20.40;70.20;;;;;;4744485;30;20044;-82
2021/10/20 12:03:39;;;;;;;24.45;12.57;;;20.50;70.50;;;;;;4749498;30;20040;-82
2021/10/20 12:06:08;;;;;;;16.58;11.18;;;20.60;70.50;;;;;;4742301;30;20406;-82
2021/10/20 12:08:43;;;;;;;15.63;11.40;;;20.60;69.50;;;;;;4744968;30;20059;-82
2021/10/20 12:11:09;;;;;;;22.42;12.70;;;20.60;69.80;;;;;;4733040;30;20062;-82
2021/10/20 12:13:37;;;;;;;21.83;12.07;;;20.60;70.10;;;;;;4757532;30;20351;-82
2021/10/20 12:16:05;;;;;;;24.15;12.18;;;20.50;69.30;;;;;;4798215;29;20263;-82
2021/10/20 12:18:31;;;;;;;17.55;12.00;;;20.40;70.00;;;;;;4804403;29;20035;-82
2021/10/20 12:20:59;;;;;;;16.95;10.68;;;20.30;70.40;;;;;;4799253;29;20055;-82
2021/10/20 12:23:35;;;;;;;17.35;11.13;;;20.40;70.60;;;;;;4809102;29;20102;-82
2021/10/20 12:26:01;;;;;;;21.05;10.18;;;20.40;69.80;;;;;;4804755;29;20039;-82
2021/10/20 12:28:27;;;;;;;12.02;9.05;;;20.60;70.40;;;;;;4810448;29;20027;-82
2021/10/20 12:30:53;;;;;;;14.93;10.07;;;20.60;69.90;;;;;;4803203;29;20107;-82
2021/10/20 12:33:22;;;;;;;16.83;10.30;;;20.70;69.90;;;;;;4816380;29;20039;-82
2021/10/20 12:35:50;;;;;;;18.95;9.80;;;20.70;68.50;;;;;;4816263;29;20027;-82
2021/10/20 12:38:19;;;;;;;21.65;10.07;;;20.60;68.50;;;;;;4801966;29;20384;-82
2021/10/20 12:40:48;;;;;;;18.75;10.10;;;20.60;68.20;;;;;;4808276;29;20031;-83
2021/10/20 12:43:18;;;;;;;14.43;9.15;;;20.60;68.90;;;;;;4809476;29;20031;-81
2021/10/20 12:45:50;;;;;;;16.25;9.90;;;20.60;68.30;;;;;;4796948;29;20034;-80
2021/10/20 12:48:16;;;;;;;17.17;9.88;;;20.60;68.10;;;;;;4785067;29;20106;-80
2021/10/20 12:50:46;;;;;;;16.25;9.20;;;20.50;69.00;;;;;;4807632;29;20038;-80
2021/10/20 12:53:13;;;;;;;19.52;9.98;;;20.60;68.50;;;;;;4815455;29;20045;-80
2021/10/20 12:55:41;;;;;;;21.67;9.65;;;20.50;68.30;;;;;;4812423;29;20116;-81
2021/10/20 12:58:14;;;;;;;20.48;11.18;;;20.50;68.50;;;;;;4792901;29;20086;-81
2021/10/20 13:00:41;;;;;;;16.95;10.40;;;20.50;68.70;;;;;;4804034;29;20023;-81
2021/10/20 13:03:07;;;;;;;21.48;10.13;;;20.60;68.70;;;;;;4804710;29;20028;-81
2021/10/20 13:05:33;;;;;;;13.65;9.23;;;20.60;68.70;;;;;;4798005;29;20050;-81
2021/10/20 13:07:59;;;;;;;24.30;9.60;;;20.60;67.70;;;;;;4798096;29;20106;-81
2021/10/20 13:10:25;;;;;;;11.73;8.57;;;20.60;68.40;;;;;;4809758;29;20289;-81
2021/10/20 13:12:57;;;;;;;15.52;9.00;;;20.70;67.50;;;;;;4802079;29;20027;-81
2021/10/20 13:15:25;;;;;;;17.73;8.98;;;20.70;67.20;;;;;;4802885;29;20036;-82
2021/10/20 13:17:52;;;;;;;17.98;8.45;;;20.80;66.10;;;;;;4817498;29;20196;-81
2021/10/20 13:20:18;;;;;;;;;;;20.70;66.40;;;;;;4812985;29;20078;-82
2021/10/20 13:22:45;;;;;;;11.37;7.90;;;20.70;67.10;;;;;;4802668;29;19917;-83
2021/10/20 13:25:12;;;;;;;11.63;8.20;;;20.80;67.00;;;;;;4801994;29;20035;-83
2021/10/20 13:27:38;;;;;;;16.80;8.40;;;20.80;67.00;;;;;;4802698;29;20043;-82
2021/10/20 13:30:07;;;;;;;15.02;8.65;;;20.80;67.20;;;;;;4804646;29;20031;-82
2021/10/20 13:32:33;;;;;;;16.75;8.40;;;20.80;66.00;;;;;;4802069;29;20102;-80
2021/10/20 13:35:00;;;;;;;18.25;8.55;;;20.70;66.90;;;;;;4803879;29;20222;-80
2021/10/20 13:37:28;;;;;;;17.95;8.18;;;20.80;66.70;;;;;;4802492;29;20031;-82
2021/10/20 13:39:54;;;;;;;13.50;7.78;;;20.70;65.80;;;;;;4800188;29;20341;-82
2021/10/20 13:42:20;;;;;;;9.57;7.13;;;20.60;65.50;;;;;;4791619;29;20492;-83
2021/10/20 13:44:45;;;;;;;16.35;7.95;;;20.50;65.70;;;;;;4814206;29;20043;-83
2021/10/20 13:47:12;;;;;;;16.10;8.13;;;20.40;66.20;;;;;;4810385;29;20051;-83
2021/10/20 13:49:37;;;;;;;18.35;7.90;;;20.30;66.60;;;;;;4801997;29;20039;-83
2021/10/20 13:52:04;;;;;;;14.05;8.15;;;20.30;66.90;;;;;;4797911;29;20055;-83
2021/10/20 13:54:30;;;;;;;18.45;8.65;;;20.20;67.30;;;;;;4808678;29;20057;-83
2021/10/20 13:56:57;;;;;;;13.10;7.93;;;20.30;67.80;;;;;;4807980;29;20031;-82
2021/10/20 13:59:24;;;;;;;11.77;7.43;;;20.40;67.40;;;;;;4803593;29;20027;-83
2021/10/20 14:01:49;;;;;;;15.03;8.73;;;20.40;67.10;;;;;;4805130;29;20043;-83
2021/10/20 14:04:17;;;;;;;20.85;8.63;;;20.40;67.00;;;;;;4804619;29;20558;-82
2021/10/20 14:06:46;;;;;;;14.23;9.05;;;20.40;67.10;;;;;;4798039;29;20337;-83
2021/10/20 14:09:12;;;;;;;19.80;8.70;;;20.40;67.00;;;;;;4803279;29;20031;-83
2021/10/20 14:11:38;;;;;;;13.87;8.37;;;20.50;67.40;;;;;;4804195;29;20261;-83
2021/10/20 14:14:04;;;;;;;21.55;7.97;;;20.60;67.60;;;;;;4805342;29;20057;-83
2021/10/20 14:16:31;;;;;;;18.83;8.50;;;20.60;67.60;;;;;;4799720;29;20030;-83
2021/10/20 14:18:57;;;;;;;21.05;9.52;;;20.70;68.00;;;;;;4804973;29;20058;-83
2021/10/20 14:21:23;;;;;;;19.10;9.18;;;20.60;67.10;;;;;;4801206;29;20030;-82
2021/10/20 14:23:49;;;;;;;20.13;9.50;;;20.70;66.90;;;;;;4814295;29;20041;-82
2021/10/20 14:26:15;;;;;;;18.48;8.63;;;20.60;67.90;;;;;;4803937;29;20031;-82
2021/10/20 14:28:41;;;;;;;19.60;9.45;;;20.50;67.70;;;;;;4810929;29;20085;-82
2021/10/20 14:31:07;;;;;;;14.15;9.10;;;20.50;67.00;;;;;;4806044;29;20080;-82
2021/10/20 14:33:33;;;;;;;24.05;9.30;;;20.30;67.40;;;;;;4803300;29;20035;-83
2021/10/20 14:35:59;;;;;;;16.15;9.13;;;20.20;68.00;;;;;;4810192;29;20401;-82
2021/10/20 14:38:25;;;;;;;14.60;8.73;;;20.10;68.10;;;;;;4804190;29;20027;-81
2021/10/20 14:40:54;;;;;;;16.40;9.13;;;20.00;68.00;;;;;;4801262;29;20053;-81
2021/10/20 14:43:22;;;;;;;17.65;9.13;;;20.00;68.50;;;;;;4807228;29;20386;-82
2021/10/20 14:45:48;;;;;;;14.80;8.77;;;20.00;68.70;;;;;;4801663;29;20042;-79
2021/10/20 14:48:15;;;;;;;18.85;9.50;;;19.90;69.00;;;;;;4801428;29;20075;-79
2021/10/20 14:50:40;;;;;;;14.43;8.73;;;19.80;69.20;;;;;;4796366;29;20411;-82
2021/10/20 14:53:06;;;;;;;17.48;8.80;;;19.80;69.20;;;;;;4798295;29;20027;-82
2021/10/20 14:55:33;;;;;;;17.55;8.50;;;19.70;69.60;;;;;;4813668;29;20034;-80
2021/10/20 14:57:59;;;;;;;16.13;8.75;;;19.80;69.40;;;;;;4813196;29;20658;-81
2021/10/20 15:00:25;;;;;;;17.65;7.93;;;19.70;69.60;;;;;;4808868;29;20034;-81
2021/10/20 15:02:52;;;;;;;20.67;9.20;;;19.70;69.60;;;;;;4804713;29;20026;-81
2021/10/20 15:05:19;;;;;;;13.88;8.77;;;19.60;70.00;;;;;;4803903;29;20145;-81
2021/10/20 15:07:47;;;;;;;25.13;9.80;;;19.50;70.30;;;;;;4806273;29;20039;-81
2021/10/20 15:10:14;;;;;;;25.88;9.45;;;19.50;70.50;;;;;;4806185;29;20380;-81
2021/10/20 15:12:41;;;;;;;20.48;8.20;;;19.60;70.30;;;;;;4795386;29;20350;-81
2021/10/20 15:15:08;;;;;;;21.00;9.63;;;19.50;70.70;;;;;;4798663;29;20106;-81
2021/10/20 15:17:35;;;;;;;14.15;8.80;;;19.50;70.60;;;;;;4813872;29;20043;-80
2021/10/20 15:20:04;;;;;;;17.23;8.77;;;19.50;70.90;;;;;;4806626;29;20093;-81